sensor_id;sensor_type;location;lat;lon;timestamp;pressure;altitude;pressure_sealevel;temperature;humidity
75538;BME280;64121;48.666;8.114;2022-12-07T00:00:26;100287.06;;;3.16;100.00
75538;BME280;64121;48.666;8.114;2022-12-07T00:02:51;100287.59;;;3.18;100.00
75538;BME280;64121;48.666;8.114;2022-12-07T00:05:16;100290.34;;;3.18;100.00
75538;BME280;64121;48.666;8.114;2022-12-07T00:07:42;100288.16;;;3.15;100.00
75538;BME280;64121;48.666;8.114;2022-12-07T00:10:07;100280.72;;;3.16;100.00
75538;BME280;64121;48.666;8.114;2022-12-07T00:12:32;100276.59;;;3.18;100.00
75538;BME280;64121;48.666;8.114;2022-12-07T00:14:58;100277.41;;;3.19;100.00
75538;BME280;64121;48.666;8.114;2022-12-07T00:17:24;100269.47;;;3.17;100.00
75538;BME280;64121;48.666;8.114;2022-12-07T00:19:50;100271.09;;;3.18;100.00
75538;BME280;64121;48.666;8.114;2022-12-07T00:22:15;100274.97;;;3.17;100.00
75538;BME280;64121;48.666;8.114;2022-12-07T00:24:40;100277.97;;;3.16;100.00
75538;BME280;64121;48.666;8.114;2022-12-07T00:27:06;100279.66;;;3.17;100.00
75538;BME280;64121;48.666;8.114;2022-12-07T00:29:31;100282.13;;;3.13;100.00
75538;BME280;64121;48.666;8.114;2022-12-07T00:31:56;100278.03;;;3.11;100.00
75538;BME280;64121;48.666;8.114;2022-12-07T00:34:23;100282.19;;;3.08;100.00
75538;BME280;64121;48.666;8.114;2022-12-07T00:36:49;100280.56;;;3.07;100.00
75538;BME280;64121;48.666;8.114;2022-12-07T00:39:15;100272.63;;;3.06;100.00
75538;BME280;64121;48.666;8.114;2022-12-07T00:41:40;100268.22;;;3.04;100.00
75538;BME280;64121;48.666;8.114;2022-12-07T00:44:06;100266.88;;;3.02;100.00
75538;BME280;64121;48.666;8.114;2022-12-07T00:46:31;100267.19;;;3.00;100.00
75538;BME280;64121;48.666;8.114;2022-12-07T00:48:57;100271.03;;;2.99;100.00
75538;BME280;64121;48.666;8.114;2022-12-07T00:51:24;100269.41;;;2.98;100.00
75538;BME280;64121;48.666;8.114;2022-12-07T00:53:51;100262.81;;;2.94;100.00
75538;BME280;64121;48.666;8.114;2022-12-07T00:56:18;100257.91;;;2.91;100.00
75538;BME280;64121;48.666;8.114;2022-12-07T00:58:49;100268.31;;;2.94;100.00
75538;BME280;64121;48.666;8.114;2022-12-07T01:01:15;100270.56;;;2.92;100.00
75538;BME280;64121;48.666;8.114;2022-12-07T01:03:40;100268.63;;;2.93;100.00
75538;BME280;64121;48.666;8.114;2022-12-07T01:06:05;100270.03;;;2.90;100.00
75538;BME280;64121;48.666;8.114;2022-12-07T01:08:32;100267.88;;;2.87;100.00
75538;BME280;64121;48.666;8.114;2022-12-07T01:10:59;100273.66;;;2.86;100.00
75538;BME280;64121;48.666;8.114;2022-12-07T01:13:25;100272.59;;;2.82;100.00
75538;BME280;64121;48.666;8.114;2022-12-07T01:15:50;100269.84;;;2.82;100.00
75538;BME280;64121;48.666;8.114;2022-12-07T01:18:15;100267.66;;;2.79;100.00
75538;BME280;64121;48.666;8.114;2022-12-07T01:20:41;100269.84;;;2.82;100.00
75538;BME280;64121;48.666;8.114;2022-12-07T01:23:06;100272.91;;;2.80;100.00
75538;BME280;64121;48.666;8.114;2022-12-07T01:25:33;100278.91;;;2.82;100.00
75538;BME280;64121;48.666;8.114;2022-12-07T01:27:58;100276.16;;;2.82;100.00
75538;BME280;64121;48.666;8.114;2022-12-07T01:30:23;100275.06;;;2.83;100.00
75538;BME280;64121;48.666;8.114;2022-12-07T01:32:49;100275.88;;;2.84;100.00
75538;BME280;64121;48.666;8.114;2022-12-07T01:35:14;100277.81;;;2.83;100.00
75538;BME280;64121;48.666;8.114;2022-12-07T01:37:40;100278.31;;;2.85;100.00
75538;BME280;64121;48.666;8.114;2022-12-07T01:40:07;100284.13;;;2.84;100.00
75538;BME280;64121;48.666;8.114;2022-12-07T01:42:34;100284.34;;;2.87;100.00
75538;BME280;64121;48.666;8.114;2022-12-07T01:48:10;100294.06;;;2.80;100.00
75538;BME280;64121;48.666;8.114;2022-12-07T01:50:38;100294.06;;;2.80;100.00
75538;BME280;64121;48.666;8.114;2022-12-07T01:53:06;100292.38;;;2.79;100.00
75538;BME280;64121;48.666;8.114;2022-12-07T01:55:35;100289.09;;;2.82;100.00
75538;BME280;64121;48.666;8.114;2022-12-07T01:58:04;100283.91;;;2.75;100.00
75538;BME280;64121;48.666;8.114;2022-12-07T02:00:29;100287.16;;;2.82;100.00
75538;BME280;64121;48.666;8.114;2022-12-07T02:02:57;100293.25;;;2.79;100.00
75538;BME280;64121;48.666;8.114;2022-12-07T02:05:26;100295.13;;;2.79;100.00
75538;BME280;64121;48.666;8.114;2022-12-07T02:07:53;100292.38;;;2.79;100.00
75538;BME280;64121;48.666;8.114;2022-12-07T02:10:22;100298.72;;;2.79;100.00
75538;BME280;64121;48.666;8.114;2022-12-07T02:12:50;100293.25;;;2.79;100.00
75538;BME280;64121;48.666;8.114;2022-12-07T02:15:19;100286.63;;;2.80;100.00
75538;BME280;64121;48.666;8.114;2022-12-07T02:17:50;100286.91;;;2.79;100.00
75538;BME280;64121;48.666;8.114;2022-12-07T02:20:23;100283.31;;;2.78;100.00
75538;BME280;64121;48.666;8.114;2022-12-07T02:23:07;100276.75;;;2.79;100.00
75538;BME280;64121;48.666;8.114;2022-12-07T02:25:57;100280.56;;;2.78;100.00
75538;BME280;64121;48.666;8.114;2022-12-07T02:28:29;100274.47;;;2.86;100.00
75538;BME280;64121;48.666;8.114;2022-12-07T02:31:02;100269.84;;;2.82;100.00
75538;BME280;64121;48.666;8.114;2022-12-07T02:33:33;100272.84;;;2.85;100.00
75538;BME280;64121;48.666;8.114;2022-12-07T02:36:04;100273.06;;;2.89;100.00
75538;BME280;64121;48.666;8.114;2022-12-07T02:38:35;100270.16;;;2.80;100.00
75538;BME280;64121;48.666;8.114;2022-12-07T02:41:04;100274.25;;;2.78;100.00
75538;BME280;64121;48.666;8.114;2022-12-07T02:43:34;100277.31;;;2.76;100.00
75538;BME280;64121;48.666;8.114;2022-12-07T02:46:05;100275.97;;;2.73;100.00
75538;BME280;64121;48.666;8.114;2022-12-07T02:48:33;100270.47;;;2.73;100.00
75538;BME280;64121;48.666;8.114;2022-12-07T02:50:59;100273.78;;;2.70;100.00
75538;BME280;64121;48.666;8.114;2022-12-07T02:53:28;100262.56;;;2.67;100.00
75538;BME280;64121;48.666;8.114;2022-12-07T02:55:54;100256.56;;;2.65;100.00
75538;BME280;64121;48.666;8.114;2022-12-07T02:58:30;100260.34;;;2.69;100.00
75538;BME280;64121;48.666;8.114;2022-12-07T03:01:08;100259.31;;;2.65;100.00
75538;BME280;64121;48.666;8.114;2022-12-07T03:03:37;100256.56;;;2.65;100.00
75538;BME280;64121;48.666;8.114;2022-12-07T03:06:07;100252.94;;;2.69;100.00
75538;BME280;64121;48.666;8.114;2022-12-07T03:08:43;100253.81;;;2.65;100.00
75538;BME280;64121;48.666;8.114;2022-12-07T03:11:10;100254.63;;;2.65;100.00
75538;BME280;64121;48.666;8.114;2022-12-07T03:13:41;100258.78;;;2.63;100.00
75538;BME280;64121;48.666;8.114;2022-12-07T03:16:14;100249.19;;;2.60;100.00
75538;BME280;64121;48.666;8.114;2022-12-07T03:18:44;100248.63;;;2.58;100.00
75538;BME280;64121;48.666;8.114;2022-12-07T03:21:14;100258.84;;;2.53;100.00
75538;BME280;64121;48.666;8.114;2022-12-07T03:23:42;100250.63;;;2.53;100.00
75538;BME280;64121;48.666;8.114;2022-12-07T03:26:12;100254.13;;;2.58;100.00
75538;BME280;64121;48.666;8.114;2022-12-07T03:28:42;100250.63;;;2.53;100.00
75538;BME280;64121;48.666;8.114;2022-12-07T03:31:14;100248.47;;;2.50;100.00
75538;BME280;64121;48.666;8.114;2022-12-07T03:33:45;100248.97;;;2.52;100.00
75538;BME280;64121;48.666;8.114;2022-12-07T03:36:15;100254.81;;;2.45;100.00
75538;BME280;64121;48.666;8.114;2022-12-07T03:38:46;100253.19;;;2.44;100.00
75538;BME280;64121;48.666;8.114;2022-12-07T03:41:16;100239.75;;;2.42;100.00
75538;BME280;64121;48.666;8.114;2022-12-07T03:43:43;100243.25;;;2.48;100.00
75538;BME280;64121;48.666;8.114;2022-12-07T03:46:19;100240.28;;;2.45;100.00
75538;BME280;64121;48.666;8.114;2022-12-07T03:48:51;100246.75;;;2.54;100.00
75538;BME280;64121;48.666;8.114;2022-12-07T03:51:22;100250.38;;;2.49;100.00
75538;BME280;64121;48.666;8.114;2022-12-07T03:53:53;100244.00;;;2.54;100.00
75538;BME280;64121;48.666;8.114;2022-12-07T03:56:20;100241.63;;;2.47;100.00
75538;BME280;64121;48.666;8.114;2022-12-07T03:58:47;100238.56;;;2.49;100.00
75538;BME280;64121;48.666;8.114;2022-12-07T04:01:13;100241.91;;;2.46;100.00
75538;BME280;64121;48.666;8.114;2022-12-07T04:03:40;100244.31;;;2.52;100.00
75538;BME280;64121;48.666;8.114;2022-12-07T04:06:05;100255.00;;;2.54;100.00
75538;BME280;64121;48.666;8.114;2022-12-07T04:08:31;100250.38;;;2.49;100.00
75538;BME280;64121;48.666;8.114;2022-12-07T04:10:56;100253.13;;;2.49;100.00
75538;BME280;64121;48.666;8.114;2022-12-07T04:13:21;100244.88;;;2.49;100.00
75538;BME280;64121;48.666;8.114;2022-12-07T04:15:46;100232.56;;;2.47;100.00
75538;BME280;64121;48.666;8.114;2022-12-07T04:18:12;100225.44;;;2.46;100.00
75538;BME280;64121;48.666;8.114;2022-12-07T04:20:38;100240.22;;;2.50;100.00
75538;BME280;64121;48.666;8.114;2022-12-07T04:23:04;100241.84;;;2.51;100.00
75538;BME280;64121;48.666;8.114;2022-12-07T04:25:29;100246.81;;;2.49;100.00
75538;BME280;64121;48.666;8.114;2022-12-07T04:27:54;100243.25;;;2.48;100.00
75538;BME280;64121;48.666;8.114;2022-12-07T04:30:20;100230.63;;;2.47;100.00
75538;BME280;64121;48.666;8.114;2022-12-07T04:32:45;100227.66;;;2.43;100.00
75538;BME280;64121;48.666;8.114;2022-12-07T04:35:11;100220.78;;;2.41;100.00
75538;BME280;64121;48.666;8.114;2022-12-07T04:37:37;100221.94;;;2.35;100.00
75538;BME280;64121;48.666;8.114;2022-12-07T04:40:04;100229.38;;;2.34;100.00
75538;BME280;64121;48.666;8.114;2022-12-07T04:42:29;100239.88;;;2.27;100.00
75538;BME280;64121;48.666;8.114;2022-12-07T04:44:54;100241.22;;;2.30;100.00
75538;BME280;64121;48.666;8.114;2022-12-07T04:47:20;100236.84;;;2.29;100.00
75538;BME280;64121;48.666;8.114;2022-12-07T04:49:45;100242.94;;;2.21;100.00
75538;BME280;64121;48.666;8.114;2022-12-07T04:52:10;100241.91;;;2.11;100.00
75538;BME280;64121;48.666;8.114;2022-12-07T04:54:37;100240.84;;;2.07;100.00
75538;BME280;64121;48.666;8.114;2022-12-07T04:57:03;100242.50;;;2.08;100.00
75538;BME280;64121;48.666;8.114;2022-12-07T04:59:28;100245.81;;;2.05;100.00
75538;BME280;64121;48.666;8.114;2022-12-07T05:01:53;100249.41;;;2.01;100.00
75538;BME280;64121;48.666;8.114;2022-12-07T05:04:19;100255.50;;;1.93;100.00
75538;BME280;64121;48.666;8.114;2022-12-07T05:06:44;100253.09;;;1.86;100.00
75538;BME280;64121;48.666;8.114;2022-12-07T05:09:09;100246.97;;;1.94;100.00
75538;BME280;64121;48.666;8.114;2022-12-07T05:11:36;100251.41;;;1.85;100.00
75538;BME280;64121;48.666;8.114;2022-12-07T05:14:02;100247.06;;;1.79;100.00
75538;BME280;64121;48.666;8.114;2022-12-07T05:16:28;100248.22;;;1.73;100.00
75538;BME280;64121;48.666;8.114;2022-12-07T05:18:54;100253.34;;;1.85;100.00
75538;BME280;64121;48.666;8.114;2022-12-07T05:21:19;100238.34;;;1.72;100.00
75538;BME280;64121;48.666;8.114;2022-12-07T05:23:44;100247.41;;;1.67;100.00
75538;BME280;64121;48.666;8.114;2022-12-07T05:26:10;100246.88;;;1.65;100.00
75538;BME280;64121;48.666;8.114;2022-12-07T05:28:37;100253.75;;;1.63;100.00
75538;BME280;64121;48.666;8.114;2022-12-07T05:31:02;100248.28;;;1.63;100.00
75538;BME280;64121;48.666;8.114;2022-12-07T05:33:27;100241.69;;;1.64;100.00
75538;BME280;64121;48.666;8.114;2022-12-07T05:35:53;100239.75;;;1.64;100.00
75538;BME280;64121;48.666;8.114;2022-12-07T05:38:18;100237.34;;;1.58;100.00
75538;BME280;64121;48.666;8.114;2022-12-07T05:40:43;100237.06;;;1.59;100.00
75538;BME280;64121;48.666;8.114;2022-12-07T05:43:09;100236.47;;;1.62;100.00
75538;BME280;64121;48.666;8.114;2022-12-07T05:45:35;100248.25;;;1.68;100.00
75538;BME280;64121;48.666;8.114;2022-12-07T05:48:01;100241.09;;;1.72;100.00
75538;BME280;64121;48.666;8.114;2022-12-07T05:50:26;100247.13;;;1.74;100.00
75538;BME280;64121;48.666;8.114;2022-12-07T05:52:51;100250.16;;;1.72;100.00
75538;BME280;64121;48.666;8.114;2022-12-07T05:55:17;100248.75;;;1.75;100.00
75538;BME280;64121;48.666;8.114;2022-12-07T05:57:42;100252.31;;;1.75;100.00
75538;BME280;64121;48.666;8.114;2022-12-07T06:00:08;100252.09;;;1.67;100.00
75538;BME280;64121;48.666;8.114;2022-12-07T06:02:35;100257.31;;;1.68;100.00
75538;BME280;64121;48.666;8.114;2022-12-07T06:05:01;100255.38;;;1.69;100.00
75538;BME280;64121;48.666;8.114;2022-12-07T06:07:26;100261.41;;;1.71;100.00
75538;BME280;64121;48.666;8.114;2022-12-07T06:09:51;100257.84;;;1.70;100.00
75538;BME280;64121;48.666;8.114;2022-12-07T06:12:17;100264.44;;;1.69;100.00
75538;BME280;64121;48.666;8.114;2022-12-07T06:14:42;100260.88;;;1.69;100.00
75538;BME280;64121;48.666;8.114;2022-12-07T06:17:08;100260.88;;;1.69;100.00
75538;BME280;64121;48.666;8.114;2022-12-07T06:19:34;100265.25;;;1.70;100.00
75538;BME280;64121;48.666;8.114;2022-12-07T06:22:00;100259.47;;;1.71;100.00
75538;BME280;64121;48.666;8.114;2022-12-07T06:24:25;100266.03;;;1.75;100.00
75538;BME280;64121;48.666;8.114;2022-12-07T06:26:51;100257.53;;;1.77;100.00
75538;BME280;64121;48.666;8.114;2022-12-07T06:29:17;100256.94;;;1.80;100.00
75538;BME280;64121;48.666;8.114;2022-12-07T06:31:42;100257.47;;;1.82;100.00
75538;BME280;64121;48.666;8.114;2022-12-07T06:34:10;100261.63;;;1.79;100.00
75538;BME280;64121;48.666;8.114;2022-12-07T06:36:37;100261.03;;;1.82;100.00
75538;BME280;64121;48.666;8.114;2022-12-07T06:39:03;100260.75;;;1.84;100.00
75538;BME280;64121;48.666;8.114;2022-12-07T06:41:29;100256.91;;;1.85;99.95
75538;BME280;64121;48.666;8.114;2022-12-07T06:43:54;100264.06;;;1.86;99.76
75538;BME280;64121;48.666;8.114;2022-12-07T06:46:20;100262.97;;;1.87;100.00
75538;BME280;64121;48.666;8.114;2022-12-07T06:48:45;100271.72;;;1.84;100.00
75538;BME280;64121;48.666;8.114;2022-12-07T06:51:10;100263.50;;;1.84;99.61
75538;BME280;64121;48.666;8.114;2022-12-07T06:53:37;100259.66;;;1.85;98.92
75538;BME280;64121;48.666;8.114;2022-12-07T06:56:03;100267.88;;;1.90;98.43
75538;BME280;64121;48.666;8.114;2022-12-07T06:58:28;100268.94;;;1.94;98.32
75538;BME280;64121;48.666;8.114;2022-12-07T07:00:54;100270.31;;;1.92;98.46
75538;BME280;64121;48.666;8.114;2022-12-07T07:03:19;100265.66;;;1.92;97.23
75538;BME280;64121;48.666;8.114;2022-12-07T07:05:45;100267.50;;;2.02;96.58
75538;BME280;64121;48.666;8.114;2022-12-07T07:08:11;100266.19;;;1.94;96.74
75538;BME280;64121;48.666;8.114;2022-12-07T07:10:38;100266.75;;;1.91;97.32
75538;BME280;64121;48.666;8.114;2022-12-07T07:13:04;100260.47;;;1.91;97.85
75538;BME280;64121;48.666;8.114;2022-12-07T07:15:29;100275.00;;;1.91;97.64
75538;BME280;64121;48.666;8.114;2022-12-07T07:17:54;100272.78;;;1.93;97.40
75538;BME280;64121;48.666;8.114;2022-12-07T07:20:20;100264.31;;;1.90;97.69
75538;BME280;64121;48.666;8.114;2022-12-07T07:22:45;100268.97;;;1.89;97.95
75538;BME280;64121;48.666;8.114;2022-12-07T07:25:11;100273.88;;;1.92;97.59
75538;BME280;64121;48.666;8.114;2022-12-07T07:27:37;100269.50;;;1.91;97.64
75538;BME280;64121;48.666;8.114;2022-12-07T07:30:04;100271.91;;;1.98;97.17
75538;BME280;64121;48.666;8.114;2022-12-07T07:32:29;100278.47;;;2.02;96.58
75538;BME280;64121;48.666;8.114;2022-12-07T07:34:55;100280.41;;;2.01;96.99
75538;BME280;64121;48.666;8.114;2022-12-07T07:37:20;100276.31;;;1.99;96.80
75538;BME280;64121;48.666;8.114;2022-12-07T07:39:45;100284.53;;;1.99;96.37
75538;BME280;64121;48.666;8.114;2022-12-07T07:42:10;100271.59;;;2.04;95.84
75538;BME280;64121;48.666;8.114;2022-12-07T07:44:37;100287.50;;;2.07;95.40
75538;BME280;64121;48.666;8.114;2022-12-07T07:47:03;100294.88;;;2.12;96.26
75538;BME280;64121;48.666;8.114;2022-12-07T07:49:28;100289.41;;;2.12;95.98
75538;BME280;64121;48.666;8.114;2022-12-07T07:51:54;100282.78;;;2.13;96.23
75538;BME280;64121;48.666;8.114;2022-12-07T07:54:19;100281.97;;;2.12;96.85
75538;BME280;64121;48.666;8.114;2022-12-07T07:56:44;100282.50;;;2.15;97.16
75538;BME280;64121;48.666;8.114;2022-12-07T07:59:09;100282.50;;;2.15;96.07
75538;BME280;64121;48.666;8.114;2022-12-07T08:01:36;100285.47;;;2.23;94.89
75538;BME280;64121;48.666;8.114;2022-12-07T08:04:02;100283.47;;;2.34;94.00
75538;BME280;64121;48.666;8.114;2022-12-07T08:06:27;100286.22;;;2.34;94.10
75538;BME280;64121;48.666;8.114;2022-12-07T08:08:52;100288.09;;;2.38;92.61
75538;BME280;64121;48.666;8.114;2022-12-07T08:11:18;100288.34;;;2.42;93.38
75538;BME280;64121;48.666;8.114;2022-12-07T08:13:45;100285.78;;;2.51;92.59
75538;BME280;64121;48.666;8.114;2022-12-07T08:16:10;100288.19;;;2.57;91.85
75538;BME280;64121;48.666;8.114;2022-12-07T08:18:39;100298.34;;;2.62;92.52
75538;BME280;64121;48.666;8.114;2022-12-07T08:21:05;100292.06;;;2.56;92.91
75538;BME280;64121;48.666;8.114;2022-12-07T08:23:31;100298.66;;;2.55;92.06
75538;BME280;64121;48.666;8.114;2022-12-07T08:25:59;100294.22;;;2.59;91.77
75538;BME280;64121;48.666;8.114;2022-12-07T08:28:25;100299.09;;;2.67;90.29
75538;BME280;64121;48.666;8.114;2022-12-07T08:30:50;100303.19;;;2.70;91.11
75538;BME280;64121;48.666;8.114;2022-12-07T08:33:15;100301.22;;;2.76;91.63
75538;BME280;64121;48.666;8.114;2022-12-07T08:35:42;100300.38;;;2.80;91.44
75538;BME280;64121;48.666;8.114;2022-12-07T08:38:07;100301.72;;;2.83;91.37
75538;BME280;64121;48.666;8.114;2022-12-07T08:40:33;100300.19;;;2.95;92.44
75538;BME280;64121;48.666;8.114;2022-12-07T08:42:58;100289.47;;;2.99;88.09
75538;BME280;64121;48.666;8.114;2022-12-07T08:45:24;100294.03;;;3.09;87.62
75538;BME280;64121;48.666;8.114;2022-12-07T08:47:52;100291.16;;;3.19;85.87
75538;BME280;64121;48.666;8.114;2022-12-07T08:50:19;100295.25;;;3.21;84.71
75538;BME280;64121;48.666;8.114;2022-12-07T08:52:48;100289.75;;;3.21;84.63
75538;BME280;64121;48.666;8.114;2022-12-07T08:55:14;100295.19;;;3.26;85.29
75538;BME280;64121;48.666;8.114;2022-12-07T08:57:40;100290.81;;;3.25;84.42
75538;BME280;64121;48.666;8.114;2022-12-07T09:00:06;100297.66;;;3.28;84.43
75538;BME280;64121;48.666;8.114;2022-12-07T09:02:32;100286.44;;;3.24;84.79
75538;BME280;64121;48.666;8.114;2022-12-07T09:04:57;100280.22;;;3.38;84.45
75538;BME280;64121;48.666;8.114;2022-12-07T09:07:23;100287.41;;;3.33;81.98
75538;BME280;64121;48.666;8.114;2022-12-07T09:09:50;100291.78;;;3.34;81.63
75538;BME280;64121;48.666;8.114;2022-12-07T09:12:15;100288.00;;;3.30;84.84
75538;BME280;64121;48.666;8.114;2022-12-07T09:14:40;100285.25;;;3.30;83.93
75538;BME280;64121;48.666;8.114;2022-12-07T09:17:06;100290.41;;;3.37;83.57
75538;BME280;64121;48.666;8.114;2022-12-07T09:19:32;100300.00;;;3.40;82.24
75538;BME280;64121;48.666;8.114;2022-12-07T09:21:57;100301.88;;;3.44;81.69
75538;BME280;64121;48.666;8.114;2022-12-07T09:24:23;100304.25;;;3.51;81.63
75538;BME280;64121;48.666;8.114;2022-12-07T09:26:49;100301.75;;;3.54;81.44
75538;BME280;64121;48.666;8.114;2022-12-07T09:29:15;100297.19;;;3.45;83.20
75538;BME280;64121;48.666;8.114;2022-12-07T09:31:40;100303.50;;;3.45;83.52
75538;BME280;64121;48.666;8.114;2022-12-07T09:34:05;100302.16;;;3.43;83.04
75538;BME280;64121;48.666;8.114;2022-12-07T09:36:31;100304.16;;;3.37;83.40
75538;BME280;64121;48.666;8.114;2022-12-07T09:38:57;100294.28;;;3.36;83.13
75538;BME280;64121;48.666;8.114;2022-12-07T09:41:24;100298.94;;;3.36;83.77
75538;BME280;64121;48.666;8.114;2022-12-07T09:43:52;100301.69;;;3.36;84.89
75538;BME280;64121;48.666;8.114;2022-12-07T09:46:19;100295.38;;;3.35;84.61
75538;BME280;64121;48.666;8.114;2022-12-07T09:48:45;100300.88;;;3.35;85.07
75538;BME280;64121;48.666;8.114;2022-12-07T09:51:16;100298.38;;;3.39;83.98
75538;BME280;64121;48.666;8.114;2022-12-07T09:53:42;100293.44;;;3.36;83.89
75538;BME280;64121;48.666;8.114;2022-12-07T09:56:11;100281.34;;;3.37;83.71
75538;BME280;64121;48.666;8.114;2022-12-07T09:58:38;100279.97;;;3.34;83.99
75538;BME280;64121;48.666;8.114;2022-12-07T10:01:11;100277.78;;;3.36;84.48
75538;BME280;64121;48.666;8.114;2022-12-07T10:03:39;100284.31;;;3.40;83.77
75538;BME280;64121;48.666;8.114;2022-12-07T10:06:05;100281.84;;;3.39;84.01
75538;BME280;64121;48.666;8.114;2022-12-07T10:08:31;100278.22;;;3.43;85.68
75538;BME280;64121;48.666;8.114;2022-12-07T10:10:58;100267.50;;;3.42;84.53
75538;BME280;64121;48.666;8.114;2022-12-07T10:13:34;100270.50;;;3.45;84.77
75538;BME280;64121;48.666;8.114;2022-12-07T10:16:00;100266.09;;;3.44;85.19
75538;BME280;64121;48.666;8.114;2022-12-07T10:18:29;100267.00;;;3.40;85.17
75538;BME280;64121;48.666;8.114;2022-12-07T10:21:19;100260.91;;;3.43;85.85
75538;BME280;64121;48.666;8.114;2022-12-07T10:23:59;100249.91;;;3.43;85.90
75538;BME280;64121;48.666;8.114;2022-12-07T10:26:29;100253.91;;;3.50;85.19
75538;BME280;64121;48.666;8.114;2022-12-07T10:28:54;100253.34;;;3.53;84.46
75538;BME280;64121;48.666;8.114;2022-12-07T10:31:22;100249.69;;;3.58;84.88
75538;BME280;64121;48.666;8.114;2022-12-07T10:33:53;100243.09;;;3.59;85.43
75538;BME280;64121;48.666;8.114;2022-12-07T10:36:22;100245.47;;;3.65;84.13
75538;BME280;64121;48.666;8.114;2022-12-07T10:38:50;100255.34;;;3.67;84.59
75538;BME280;64121;48.666;8.114;2022-12-07T10:41:15;100247.91;;;3.67;84.81
75538;BME280;64121;48.666;8.114;2022-12-07T10:43:48;100244.81;;;3.74;85.64
75538;BME280;64121;48.666;8.114;2022-12-07T10:46:28;100248.44;;;3.69;85.28
75538;BME280;64121;48.666;8.114;2022-12-07T10:49:06;100249.75;;;3.72;86.18
75538;BME280;64121;48.666;8.114;2022-12-07T10:51:41;100245.63;;;3.74;86.22
75538;BME280;64121;48.666;8.114;2022-12-07T10:54:12;100248.59;;;3.78;87.25
75538;BME280;64121;48.666;8.114;2022-12-07T10:56:56;100234.63;;;3.74;86.62
75538;BME280;64121;48.666;8.114;2022-12-07T10:59:50;100238.03;;;3.66;87.18
75538;BME280;64121;48.666;8.114;2022-12-07T11:02:31;100236.00;;;3.53;88.22
75538;BME280;64121;48.666;8.114;2022-12-07T11:05:09;100230.56;;;3.48;87.32
75538;BME280;64121;48.666;8.114;2022-12-07T11:07:44;100233.31;;;3.48;87.24
75538;BME280;64121;48.666;8.114;2022-12-07T11:10:15;100226.41;;;3.50;87.53
75538;BME280;64121;48.666;8.114;2022-12-07T11:13:00;100220.56;;;3.57;86.37
75538;BME280;64121;48.666;8.114;2022-12-07T11:15:35;100230.38;;;3.63;87.27
75538;BME280;64121;48.666;8.114;2022-12-07T11:18:09;100225.38;;;3.65;86.77
75538;BME280;64121;48.666;8.114;2022-12-07T11:20:43;100216.38;;;3.78;87.92
75538;BME280;64121;48.666;8.114;2022-12-07T11:23:18;100215.09;;;3.89;87.19
75538;BME280;64121;48.666;8.114;2022-12-07T11:25:52;100207.72;;;4.04;87.67
75538;BME280;64121;48.666;8.114;2022-12-07T11:28:23;100209.00;;;4.11;88.34
75538;BME280;64121;48.666;8.114;2022-12-07T11:30:56;100199.13;;;4.24;88.20
75538;BME280;64121;48.666;8.114;2022-12-07T11:33:27;100193.94;;;4.22;87.00
75538;BME280;64121;48.666;8.114;2022-12-07T11:36:02;100188.38;;;4.41;88.12
75538;BME280;64121;48.666;8.114;2022-12-07T11:38:36;100190.00;;;4.42;87.50
75538;BME280;64121;48.666;8.114;2022-12-07T11:41:05;100183.38;;;4.43;87.66
75538;BME280;64121;48.666;8.114;2022-12-07T11:43:32;100175.72;;;4.40;86.73
75538;BME280;64121;48.666;8.114;2022-12-07T11:46:02;100183.38;;;4.43;87.75
75538;BME280;64121;48.666;8.114;2022-12-07T11:48:33;100182.53;;;4.43;85.92
75538;BME280;64121;48.666;8.114;2022-12-07T11:51:02;100181.63;;;4.34;84.41
75538;BME280;64121;48.666;8.114;2022-12-07T11:53:32;100182.44;;;4.34;83.94
75538;BME280;64121;48.666;8.114;2022-12-07T11:56:02;100175.00;;;4.35;84.06
75538;BME280;64121;48.666;8.114;2022-12-07T11:58:46;100177.44;;;4.36;84.86
75538;BME280;64121;48.666;8.114;2022-12-07T12:01:24;100172.75;;;4.37;84.41
75538;BME280;64121;48.666;8.114;2022-12-07T12:03:53;100173.34;;;4.34;85.12
75538;BME280;64121;48.666;8.114;2022-12-07T12:06:22;100168.16;;;4.32;85.13
75538;BME280;64121;48.666;8.114;2022-12-07T12:08:52;100166.00;;;4.29;85.97
75538;BME280;64121;48.666;8.114;2022-12-07T12:11:31;100173.16;;;4.30;84.97
75538;BME280;64121;48.666;8.114;2022-12-07T12:14:11;100168.03;;;4.23;83.77
75538;BME280;64121;48.666;8.114;2022-12-07T12:19:58;100164.44;;;4.23;83.07
75538;BME280;64121;48.666;8.114;2022-12-07T12:22:33;100156.28;;;4.18;84.14
75538;BME280;64121;48.666;8.114;2022-12-07T12:24:59;100153.63;;;4.13;82.70
75538;BME280;64121;48.666;8.114;2022-12-07T12:27:26;100155.16;;;4.19;83.61
75538;BME280;64121;48.666;8.114;2022-12-07T12:29:54;100152.41;;;4.19;83.94
75538;BME280;64121;48.666;8.114;2022-12-07T12:32:21;100149.97;;;4.17;86.16
75538;BME280;64121;48.666;8.114;2022-12-07T12:34:59;100154.66;;;4.17;84.27
75538;BME280;64121;48.666;8.114;2022-12-07T12:37:45;100144.03;;;4.24;85.29
75538;BME280;64121;48.666;8.114;2022-12-07T12:43:50;100142.03;;;4.30;82.50
75538;BME280;64121;48.666;8.114;2022-12-07T12:46:50;100134.59;;;4.30;82.61
75538;BME280;64121;48.666;8.114;2022-12-07T12:49:32;100136.22;;;4.31;82.29
75538;BME280;64121;48.666;8.114;2022-12-07T12:51:59;100139.91;;;4.40;80.96
75538;BME280;64121;48.666;8.114;2022-12-07T12:54:28;100128.97;;;4.35;81.62
75538;BME280;64121;48.666;8.114;2022-12-07T12:56:58;100130.00;;;4.39;83.08
75538;BME280;64121;48.666;8.114;2022-12-07T12:59:28;100125.91;;;4.37;81.99
75538;BME280;64121;48.666;8.114;2022-12-07T13:01:56;100128.38;;;4.38;82.09
75538;BME280;64121;48.666;8.114;2022-12-07T13:04:36;100126.03;;;4.45;82.75
75538;BME280;64121;48.666;8.114;2022-12-07T13:07:03;100129.69;;;4.41;82.20
75538;BME280;64121;48.666;8.114;2022-12-07T13:09:31;100119.28;;;4.38;81.91